Hauptseite
METAR-TAF:

METAR-TAF

Flughäfen :

Fliegerhorst Wittmundhafen

Wittmund, Deutschland

Breite: 53-33N, Länge: 007-40E, Höhe: 8 m

Beobachtung

Neuester Wetterbericht von vor 49 Minuten, um 18:20 UTC
Wind 2 kt aus Nord/Nordwest
Temperatur 24°C
Luftfeuchtigkeit 47%
Luftdruck 1015 hPa
Sichtweite 10 km oder mehr
Leicht bewölkt in der Höhe von 8500 ft

METAR: ETNT 051820Z 34002KT 9999 FEW085 24/12 Q1015 BLU+

Zeit: 21:09 (19:09 UTC)

Prognose

Neuester Wetterbericht von vor 3 Stunden und 9 Minuten, um 16:00 UTC
Gültige Prognose vom 05 um 17 UTC bis 06 um 02 UTC
Wind 5 kt aus Süd/Südost
Sichtweite 10 km oder mehr
Leicht bewölkt in der Höhe von 8000 ft

TAF: ETNT 051600Z 0517/0602 15005KT 9999 NSW FEW080 BY ETGL

Wetterbeobachtungen und Prognosen von mehr als 4000 Flughäfen (METAR und TAF Bericht).

Die verfügbaren Stationen werden durch gelbe und rote Markierungen auf der Karte dargestellt.

Führen Sie die Maus auf sie, um den Namen der Station zu sehen.

Darauf klicken, um die Beobachtung von Wetterbeobachtungen und Prognosen zu sehen.

Um die Karte zu ändern : klicken Sie auf den grünen Tasten mit einem schwarzen Kreuz Zum Vergrößern, auf den grünen Button mit einem Gedankenstrich zu verkleinern, oder auf die grünen Pfeile für benachbarte Karten.


METAR-TAF: